sensor_id;sensor_type;location;lat;lon;timestamp;pressure;altitude;pressure_sealevel;temperature;humidity
62712;BME280;48772;55.586;37.730;2023-02-21T00:02:17;97085.97;;;-9.82;100.00
62712;BME280;48772;55.586;37.730;2023-02-21T00:05:01;97088.78;;;-9.87;100.00
62712;BME280;48772;55.586;37.730;2023-02-21T00:07:45;97091.47;;;-9.90;100.00
62712;BME280;48772;55.586;37.730;2023-02-21T00:10:29;97086.97;;;-9.85;100.00
62712;BME280;48772;55.586;37.730;2023-02-21T00:13:13;97075.09;;;-9.89;100.00
62712;BME280;48772;55.586;37.730;2023-02-21T00:15:57;97080.44;;;-9.93;100.00
62712;BME280;48772;55.586;37.730;2023-02-21T00:18:41;97071.72;;;-9.91;100.00
62712;BME280;48772;55.586;37.730;2023-02-21T00:21:26;97069.44;;;-9.97;100.00
62712;BME280;48772;55.586;37.730;2023-02-21T00:24:11;97074.75;;;-10.01;100.00
62712;BME280;48772;55.586;37.730;2023-02-21T00:26:56;97067.66;;;-9.96;100.00
62712;BME280;48772;55.586;37.730;2023-02-21T00:29:40;97076.06;;;-9.91;100.00
62712;BME280;48772;55.586;37.730;2023-02-21T00:32:24;97065.94;;;-9.96;100.00
62712;BME280;48772;55.586;37.730;2023-02-21T00:35:09;97072.97;;;-9.99;100.00
62712;BME280;48772;55.586;37.730;2023-02-21T00:37:53;97074.06;;;-10.05;100.00
62712;BME280;48772;55.586;37.730;2023-02-21T00:40:37;97068.47;;;-10.14;100.00
62712;BME280;48772;55.586;37.730;2023-02-21T00:43:28;97063.06;;;-10.08;100.00
62712;BME280;48772;55.586;37.730;2023-02-21T00:46:12;97058.03;;;-10.11;100.00
62712;BME280;48772;55.586;37.730;2023-02-21T00:48:57;97054.94;;;-10.19;100.00
62712;BME280;48772;55.586;37.730;2023-02-21T00:51:41;97050.31;;;-10.11;100.00
62712;BME280;48772;55.586;37.730;2023-02-21T00:54:25;97048.63;;;-10.12;100.00
62712;BME280;48772;55.586;37.730;2023-02-21T00:57:09;97045.34;;;-10.16;100.00
62712;BME280;48772;55.586;37.730;2023-02-21T00:59:53;97035.22;;;-10.20;100.00
62712;BME280;48772;55.586;37.730;2023-02-21T01:02:37;97038.66;;;-10.20;100.00
62712;BME280;48772;55.586;37.730;2023-02-21T01:05:22;97035.19;;;-10.19;100.00
62712;BME280;48772;55.586;37.730;2023-02-21T01:08:05;97035.00;;;-10.14;100.00
62712;BME280;48772;55.586;37.730;2023-02-21T01:10:50;97029.91;;;-10.16;100.00
62712;BME280;48772;55.586;37.730;2023-02-21T01:13:34;97022.34;;;-10.20;100.00
62712;BME280;48772;55.586;37.730;2023-02-21T01:16:18;97022.59;;;-10.26;100.00
62712;BME280;48772;55.586;37.730;2023-02-21T01:19:02;97017.72;;;-10.32;100.00
62712;BME280;48772;55.586;37.730;2023-02-21T01:21:46;97021.16;;;-10.33;100.00
62712;BME280;48772;55.586;37.730;2023-02-21T01:24:30;97018.72;;;-10.36;100.00
62712;BME280;48772;55.586;37.730;2023-02-21T01:27:15;97016.13;;;-10.36;100.00
62712;BME280;48772;55.586;37.730;2023-02-21T01:29:59;97009.44;;;-10.40;100.00
62712;BME280;48772;55.586;37.730;2023-02-21T01:32:43;97010.34;;;-10.41;100.00
62712;BME280;48772;55.586;37.730;2023-02-21T01:35:27;97013.66;;;-10.38;100.00
62712;BME280;48772;55.586;37.730;2023-02-21T01:38:11;97008.56;;;-10.39;100.00
62712;BME280;48772;55.586;37.730;2023-02-21T01:40:57;97010.53;;;-10.46;100.00
62712;BME280;48772;55.586;37.730;2023-02-21T01:43:57;97005.75;;;-10.55;100.00
62712;BME280;48772;55.586;37.730;2023-02-21T01:46:42;97007.59;;;-10.58;100.00
62712;BME280;48772;55.586;37.730;2023-02-21T01:49:26;97009.97;;;-10.74;100.00
62712;BME280;48772;55.586;37.730;2023-02-21T01:52:11;96973.03;;;-10.95;100.00
62712;BME280;48772;55.586;37.730;2023-02-21T01:54:55;97012.59;;;-10.75;100.00
62712;BME280;48772;55.586;37.730;2023-02-21T01:57:39;97012.97;;;-10.86;100.00
62712;BME280;48772;55.586;37.730;2023-02-21T02:00:24;97008.63;;;-10.84;100.00
62712;BME280;48772;55.586;37.730;2023-02-21T02:03:10;97003.53;;;-10.86;100.00
62712;BME280;48772;55.586;37.730;2023-02-21T02:05:56;96998.63;;;-10.92;100.00
62712;BME280;48772;55.586;37.730;2023-02-21T02:08:40;97003.59;;;-10.87;100.00
62712;BME280;48772;55.586;37.730;2023-02-21T02:11:52;97006.47;;;-10.95;100.00
62712;BME280;48772;55.586;37.730;2023-02-21T02:17:23;97009.22;;;-10.99;100.00
62712;BME280;48772;55.586;37.730;2023-02-21T02:28:08;97009.00;;;-11.16;100.00
62712;BME280;48772;55.586;37.730;2023-02-21T02:36:05;97006.63;;;-11.21;100.00
62712;BME280;48772;55.586;37.730;2023-02-21T02:38:40;96996.50;;;-11.25;100.00
62712;BME280;48772;55.586;37.730;2023-02-21T02:43:48;97001.91;;;-11.33;100.00
62712;BME280;48772;55.586;37.730;2023-02-21T02:46:21;96997.91;;;-11.40;100.00
62712;BME280;48772;55.586;37.730;2023-02-21T02:48:52;97000.75;;;-11.47;100.00
62712;BME280;48772;55.586;37.730;2023-02-21T02:51:20;96994.72;;;-11.46;100.00
62712;BME280;48772;55.586;37.730;2023-02-21T02:53:47;96994.16;;;-11.54;100.00
62712;BME280;48772;55.586;37.730;2023-02-21T02:56:14;96991.75;;;-11.59;100.00
62712;BME280;48772;55.586;37.730;2023-02-21T02:58:43;96990.22;;;-11.63;100.00
62712;BME280;48772;55.586;37.730;2023-02-21T03:03:44;96995.13;;;-11.80;100.00
62712;BME280;48772;55.586;37.730;2023-02-21T03:06:17;96996.06;;;-11.82;100.00
62712;BME280;48772;55.586;37.730;2023-02-21T03:08:56;96992.09;;;-11.91;100.00
62712;BME280;48772;55.586;37.730;2023-02-21T03:11:25;96997.41;;;-11.95;100.00
62712;BME280;48772;55.586;37.730;2023-02-21T03:17:03;96999.28;;;-12.00;100.00
62712;BME280;48772;55.586;37.730;2023-02-21T03:19:25;97002.94;;;-12.07;100.00
62712;BME280;48772;55.586;37.730;2023-02-21T03:22:01;97001.41;;;-12.13;100.00
62712;BME280;48772;55.586;37.730;2023-02-21T03:24:28;97005.63;;;-12.10;100.00
62712;BME280;48772;55.586;37.730;2023-02-21T03:26:55;97000.56;;;-12.12;100.00
62712;BME280;48772;55.586;37.730;2023-02-21T03:29:41;97006.50;;;-12.11;100.00
62712;BME280;48772;55.586;37.730;2023-02-21T03:32:08;97001.47;;;-12.14;100.00
62712;BME280;48772;55.586;37.730;2023-02-21T03:34:39;96999.66;;;-12.11;100.00
62712;BME280;48772;55.586;37.730;2023-02-21T03:37:06;97000.56;;;-12.12;100.00
62712;BME280;48772;55.586;37.730;2023-02-21T03:39:33;96998.84;;;-12.13;100.00
62712;BME280;48772;55.586;37.730;2023-02-21T03:41:59;96993.84;;;-12.16;100.00
62712;BME280;48772;55.586;37.730;2023-02-21T03:44:25;96992.16;;;-12.17;100.00
62712;BME280;48772;55.586;37.730;2023-02-21T03:46:50;96989.19;;;-12.31;100.00
62712;BME280;48772;55.586;37.730;2023-02-21T03:49:16;96987.38;;;-12.27;100.00
62712;BME280;48772;55.586;37.730;2023-02-21T03:51:42;96991.03;;;-12.34;100.00
62712;BME280;48772;55.586;37.730;2023-02-21T03:54:08;96989.44;;;-12.37;100.00
62712;BME280;48772;55.586;37.730;2023-02-21T03:56:39;96986.97;;;-12.40;100.00
62712;BME280;48772;55.586;37.730;2023-02-21T03:59:14;96993.09;;;-12.44;100.00
62712;BME280;48772;55.586;37.730;2023-02-21T04:01:40;96984.72;;;-12.49;100.00
62712;BME280;48772;55.586;37.730;2023-02-21T04:04:06;96983.22;;;-12.56;100.00
62712;BME280;48772;55.586;37.730;2023-02-21T04:06:32;96984.94;;;-12.56;100.00
62712;BME280;48772;55.586;37.730;2023-02-21T04:08:58;96990.22;;;-12.61;100.00
62712;BME280;48772;55.586;37.730;2023-02-21T04:11:25;96990.88;;;-12.54;100.00
62712;BME280;48772;55.586;37.730;2023-02-21T04:13:52;96991.50;;;-12.48;100.00
62712;BME280;48772;55.586;37.730;2023-02-21T04:16:18;96987.75;;;-12.64;100.00
62712;BME280;48772;55.586;37.730;2023-02-21T04:18:43;96991.91;;;-12.60;100.00
62712;BME280;48772;55.586;37.730;2023-02-21T04:21:14;96986.66;;;-12.57;100.00
62712;BME280;48772;55.586;37.730;2023-02-21T04:23:41;96988.34;;;-12.56;100.00
62712;BME280;48772;55.586;37.730;2023-02-21T04:26:06;96985.75;;;-12.54;100.00
62712;BME280;48772;55.586;37.730;2023-02-21T04:28:50;96989.13;;;-12.54;100.00
62712;BME280;48772;55.586;37.730;2023-02-21T04:31:17;96988.44;;;-12.59;100.00
62712;BME280;48772;55.586;37.730;2023-02-21T04:33:43;96998.56;;;-12.54;100.00
62712;BME280;48772;55.586;37.730;2023-02-21T04:36:11;96995.00;;;-12.50;100.00
62712;BME280;48772;55.586;37.730;2023-02-21T04:38:40;96999.25;;;-12.49;100.00
62712;BME280;48772;55.586;37.730;2023-02-21T04:41:06;97003.63;;;-12.53;100.00
62712;BME280;48772;55.586;37.730;2023-02-21T04:43:33;97001.97;;;-12.54;100.00
62712;BME280;48772;55.586;37.730;2023-02-21T04:45:59;97009.56;;;-12.51;100.00
62712;BME280;48772;55.586;37.730;2023-02-21T04:48:25;97000.19;;;-12.52;100.00
62712;BME280;48772;55.586;37.730;2023-02-21T04:50:51;97011.50;;;-12.57;100.00
62712;BME280;48772;55.586;37.730;2023-02-21T04:53:17;97005.47;;;-12.56;100.00
62712;BME280;48772;55.586;37.730;2023-02-21T04:55:44;97013.22;;;-12.58;100.00
62712;BME280;48772;55.586;37.730;2023-02-21T04:58:10;97007.31;;;-12.60;100.00
62712;BME280;48772;55.586;37.730;2023-02-21T05:00:36;97010.66;;;-12.58;100.00
62712;BME280;48772;55.586;37.730;2023-02-21T05:03:02;97012.44;;;-12.60;100.00
62712;BME280;48772;55.586;37.730;2023-02-21T05:05:28;97002.19;;;-12.60;100.00
62712;BME280;48772;55.586;37.730;2023-02-21T05:07:54;97010.94;;;-12.67;100.00
62712;BME280;48772;55.586;37.730;2023-02-21T05:10:20;97005.59;;;-12.61;100.00
62712;BME280;48772;55.586;37.730;2023-02-21T05:12:46;97016.03;;;-12.65;100.00
62712;BME280;48772;55.586;37.730;2023-02-21T05:15:14;97012.63;;;-12.66;100.00
62712;BME280;48772;55.586;37.730;2023-02-21T05:17:40;97010.00;;;-12.64;100.00
62712;BME280;48772;55.586;37.730;2023-02-21T05:20:06;97013.38;;;-12.64;100.00
62712;BME280;48772;55.586;37.730;2023-02-21T05:22:39;97005.81;;;-12.67;100.00
62712;BME280;48772;55.586;37.730;2023-02-21T05:25:06;97006.00;;;-12.73;100.00
62712;BME280;48772;55.586;37.730;2023-02-21T05:27:32;97010.31;;;-12.75;100.00
62712;BME280;48772;55.586;37.730;2023-02-21T05:29:58;97018.47;;;-12.62;100.00
62712;BME280;48772;55.586;37.730;2023-02-21T05:32:24;97017.44;;;-12.57;100.00
62712;BME280;48772;55.586;37.730;2023-02-21T05:34:54;97015.09;;;-12.63;100.00
62712;BME280;48772;55.586;37.730;2023-02-21T05:37:19;97014.25;;;-12.63;100.00
62712;BME280;48772;55.586;37.730;2023-02-21T05:39:47;97017.66;;;-12.63;100.00
62712;BME280;48772;55.586;37.730;2023-02-21T05:42:12;97015.81;;;-12.59;100.00
62712;BME280;48772;55.586;37.730;2023-02-21T05:44:38;97010.47;;;-12.52;100.00
62712;BME280;48772;55.586;37.730;2023-02-21T05:47:04;97016.94;;;-12.42;100.00
62712;BME280;48772;55.586;37.730;2023-02-21T05:49:31;97009.09;;;-12.37;100.00
62712;BME280;48772;55.586;37.730;2023-02-21T05:51:57;97007.34;;;-12.35;100.00
62712;BME280;48772;55.586;37.730;2023-02-21T05:54:23;97009.63;;;-12.28;100.00
62712;BME280;48772;55.586;37.730;2023-02-21T05:56:50;97016.47;;;-12.27;100.00
62712;BME280;48772;55.586;37.730;2023-02-21T05:59:17;97010.34;;;-12.23;100.00
62712;BME280;48772;55.586;37.730;2023-02-21T06:01:44;97009.13;;;-12.13;100.00
62712;BME280;48772;55.586;37.730;2023-02-21T06:04:10;97013.22;;;-12.07;100.00
62712;BME280;48772;55.586;37.730;2023-02-21T06:06:37;97012.22;;;-12.03;100.00
62712;BME280;48772;55.586;37.730;2023-02-21T06:09:03;97009.41;;;-11.96;100.00
62712;BME280;48772;55.586;37.730;2023-02-21T06:11:31;97017.63;;;-11.86;100.00
62712;BME280;48772;55.586;37.730;2023-02-21T06:14:02;97011.88;;;-11.93;100.00
62712;BME280;48772;55.586;37.730;2023-02-21T06:16:33;97015.09;;;-11.88;100.00
62712;BME280;48772;55.586;37.730;2023-02-21T06:19:01;97012.28;;;-11.80;100.00
62712;BME280;48772;55.586;37.730;2023-02-21T06:21:27;97011.84;;;-11.68;100.00
62712;BME280;48772;55.586;37.730;2023-02-21T06:23:53;97015.97;;;-11.64;100.00
62712;BME280;48772;55.586;37.730;2023-02-21T06:26:19;97017.69;;;-11.65;100.00
62712;BME280;48772;55.586;37.730;2023-02-21T06:28:46;97019.16;;;-11.59;100.00
62712;BME280;48772;55.586;37.730;2023-02-21T06:31:12;97020.47;;;-11.48;100.00
62712;BME280;48772;55.586;37.730;2023-02-21T06:33:42;97022.97;;;-11.23;100.00
62712;BME280;48772;55.586;37.730;2023-02-21T06:36:09;97016.63;;;-11.13;100.00
62712;BME280;48772;55.586;37.730;2023-02-21T06:38:36;97013.94;;;-10.89;100.00
62712;BME280;48772;55.586;37.730;2023-02-21T06:41:05;97016.97;;;-10.36;100.00
62712;BME280;48772;55.586;37.730;2023-02-21T06:43:31;97009.59;;;-10.03;100.00
62712;BME280;48772;55.586;37.730;2023-02-21T06:45:57;97013.72;;;-10.19;100.00
62712;BME280;48772;55.586;37.730;2023-02-21T06:48:23;97012.75;;;-10.37;100.00
62712;BME280;48772;55.586;37.730;2023-02-21T06:50:48;97006.09;;;-9.62;100.00
62712;BME280;48772;55.586;37.730;2023-02-21T06:53:14;97003.78;;;-9.11;100.00
62712;BME280;48772;55.586;37.730;2023-02-21T06:55:39;96998.75;;;-8.59;100.00
62712;BME280;48772;55.586;37.730;2023-02-21T06:58:05;96998.66;;;-8.22;100.00
62712;BME280;48772;55.586;37.730;2023-02-21T07:00:31;96997.16;;;-7.93;100.00
62712;BME280;48772;55.586;37.730;2023-02-21T07:02:56;97000.34;;;-7.54;100.00
62712;BME280;48772;55.586;37.730;2023-02-21T07:05:22;97004.66;;;-7.22;100.00
62712;BME280;48772;55.586;37.730;2023-02-21T07:07:48;97004.31;;;-6.99;100.00
62712;BME280;48772;55.586;37.730;2023-02-21T07:10:14;97004.63;;;-6.58;100.00
62712;BME280;48772;55.586;37.730;2023-02-21T07:12:39;96998.44;;;-6.56;100.00
62712;BME280;48772;55.586;37.730;2023-02-21T07:15:05;96997.00;;;-6.15;100.00
62712;BME280;48772;55.586;37.730;2023-02-21T07:17:31;97001.72;;;-5.78;100.00
62712;BME280;48772;55.586;37.730;2023-02-21T07:19:57;96998.31;;;-5.64;100.00
62712;BME280;48772;55.586;37.730;2023-02-21T07:22:23;97004.75;;;-5.14;100.00
62712;BME280;48772;55.586;37.730;2023-02-21T07:24:52;97004.38;;;-5.08;100.00
62712;BME280;48772;55.586;37.730;2023-02-21T07:27:18;97005.00;;;-4.76;100.00
62712;BME280;48772;55.586;37.730;2023-02-21T07:29:47;97006.22;;;-4.68;100.00
62712;BME280;48772;55.586;37.730;2023-02-21T07:32:14;97002.28;;;-4.47;100.00
62712;BME280;48772;55.586;37.730;2023-02-21T07:34:40;97007.28;;;-3.91;100.00
62712;BME280;48772;55.586;37.730;2023-02-21T07:37:05;96999.56;;;-3.92;96.81
62712;BME280;48772;55.586;37.730;2023-02-21T07:39:31;97000.75;;;-3.84;93.01
62712;BME280;48772;55.586;37.730;2023-02-21T07:41:57;97007.56;;;-3.56;91.19
62712;BME280;48772;55.586;37.730;2023-02-21T07:44:27;97002.59;;;-3.09;88.63
62712;BME280;48772;55.586;37.730;2023-02-21T07:46:54;97004.88;;;-2.92;85.84
62712;BME280;48772;55.586;37.730;2023-02-21T07:49:20;97005.22;;;-2.60;84.68
62712;BME280;48772;55.586;37.730;2023-02-21T07:51:45;97006.72;;;-2.56;81.29
62712;BME280;48772;55.586;37.730;2023-02-21T07:54:11;97000.25;;;-2.63;76.27
62712;BME280;48772;55.586;37.730;2023-02-21T07:56:41;96999.34;;;-2.39;76.44
62712;BME280;48772;55.586;37.730;2023-02-21T08:26:31;96998.34;;;-0.43;55.52
62712;BME280;48772;55.586;37.730;2023-02-21T08:28:56;96999.41;;;-0.35;53.10
62712;BME280;48772;55.586;37.730;2023-02-21T08:31:22;97001.41;;;-0.27;51.76
62712;BME280;48772;55.586;37.730;2023-02-21T08:33:51;97004.88;;;-0.38;52.39
62712;BME280;48772;55.586;37.730;2023-02-21T08:36:33;96997.75;;;-0.80;54.88
62712;BME280;48772;55.586;37.730;2023-02-21T08:39:02;96994.66;;;-0.85;57.73
62712;BME280;48772;55.586;37.730;2023-02-21T08:41:35;96996.19;;;-0.93;58.20
62712;BME280;48772;55.586;37.730;2023-02-21T08:44:01;96996.53;;;-1.09;57.37
62712;BME280;48772;55.586;37.730;2023-02-21T08:46:26;97005.22;;;-1.08;58.00
62712;BME280;48772;55.586;37.730;2023-02-21T09:00:23;97005.63;;;-1.36;60.73
62712;BME280;48772;55.586;37.730;2023-02-21T09:02:49;97010.34;;;-1.76;63.77
62712;BME280;48772;55.586;37.730;2023-02-21T09:05:18;97004.81;;;-1.95;66.89
62712;BME280;48772;55.586;37.730;2023-02-21T09:07:50;97001.06;;;-1.56;64.48
62712;BME280;48772;55.586;37.730;2023-02-21T09:10:25;97000.22;;;-1.57;65.05
62712;BME280;48772;55.586;37.730;2023-02-21T09:12:51;97001.66;;;-0.96;61.64
62712;BME280;48772;55.586;37.730;2023-02-21T09:15:16;97008.06;;;-1.00;58.31
62712;BME280;48772;55.586;37.730;2023-02-21T09:17:43;97006.91;;;-0.74;56.13
62712;BME280;48772;55.586;37.730;2023-02-21T09:20:09;97005.56;;;-0.25;52.11
62712;BME280;48772;55.586;37.730;2023-02-21T09:22:35;97000.97;;;-0.65;50.33
62712;BME280;48772;55.586;37.730;2023-02-21T09:25:03;97000.84;;;-0.42;50.17
62712;BME280;48772;55.586;37.730;2023-02-21T09:27:33;97004.03;;;-0.49;49.27
62712;BME280;48772;55.586;37.730;2023-02-21T09:30:06;96993.06;;;0.22;47.56
62712;BME280;48772;55.586;37.730;2023-02-21T09:32:32;97000.13;;;0.42;45.53
62712;BME280;48772;55.586;37.730;2023-02-21T09:34:59;97003.97;;;0.58;44.50
62712;BME280;48772;55.586;37.730;2023-02-21T09:37:25;97000.69;;;1.27;43.25
62712;BME280;48772;55.586;37.730;2023-02-21T09:39:51;96998.13;;;1.67;41.46
62712;BME280;48772;55.586;37.730;2023-02-21T09:42:18;96987.53;;;1.57;41.09
62712;BME280;48772;55.586;37.730;2023-02-21T09:44:44;96987.91;;;1.73;40.27
62712;BME280;48772;55.586;37.730;2023-02-21T09:49:49;96983.16;;;2.16;38.29
62712;BME280;48772;55.586;37.730;2023-02-21T09:52:21;96981.59;;;2.23;38.62
62712;BME280;48772;55.586;37.730;2023-02-21T09:54:51;96981.34;;;1.58;38.55
62712;BME280;48772;55.586;37.730;2023-02-21T09:57:20;96990.56;;;1.43;39.71
62712;BME280;48772;55.586;37.730;2023-02-21T09:59:47;96995.44;;;0.25;41.60
62712;BME280;48772;55.586;37.730;2023-02-21T10:02:27;96997.91;;;0.06;43.79
62712;BME280;48772;55.586;37.730;2023-02-21T10:05:06;97001.88;;;-0.44;44.38
62712;BME280;48772;55.586;37.730;2023-02-21T10:07:57;97001.66;;;-0.63;44.44
62712;BME280;48772;55.586;37.730;2023-02-21T10:13:03;97009.03;;;0.71;41.80
62712;BME280;48772;55.586;37.730;2023-02-21T10:15:35;97004.38;;;1.45;39.31
62712;BME280;48772;55.586;37.730;2023-02-21T10:20:33;96996.56;;;2.32;37.01
62712;BME280;48772;55.586;37.730;2023-02-21T10:23:00;97002.09;;;2.29;37.51
62712;BME280;48772;55.586;37.730;2023-02-21T10:25:28;96997.66;;;2.96;36.09
62712;BME280;48772;55.586;37.730;2023-02-21T10:27:54;96998.94;;;2.73;35.09
62712;BME280;48772;55.586;37.730;2023-02-21T10:30:26;96993.28;;;3.24;34.65
62712;BME280;48772;55.586;37.730;2023-02-21T10:32:53;97003.38;;;3.38;34.38
62712;BME280;48772;55.586;37.730;2023-02-21T10:35:19;97002.91;;;3.15;34.30
62712;BME280;48772;55.586;37.730;2023-02-21T10:37:46;96999.47;;;3.79;34.63
62712;BME280;48772;55.586;37.730;2023-02-21T10:42:48;97003.56;;;3.91;33.37
62712;BME280;48772;55.586;37.730;2023-02-21T10:45:16;97008.41;;;3.95;32.90
62712;BME280;48772;55.586;37.730;2023-02-21T10:47:44;97007.78;;;4.11;32.82
62712;BME280;48772;55.586;37.730;2023-02-21T10:50:12;97010.81;;;3.89;32.81
62712;BME280;48772;55.586;37.730;2023-02-21T19:39:20;97752.97;;;-10.21;100.00
62712;BME280;48772;55.586;37.730;2023-02-21T19:41:46;97759.81;;;-10.20;100.00
62712;BME280;48772;55.586;37.730;2023-02-21T19:44:11;97764.28;;;-10.26;100.00
62712;BME280;48772;55.586;37.730;2023-02-21T19:46:37;97770.19;;;-10.23;100.00
62712;BME280;48772;55.586;37.730;2023-02-21T19:49:03;97775.50;;;-10.29;100.00
62712;BME280;48772;55.586;37.730;2023-02-21T19:51:31;97785.91;;;-10.32;100.00
62712;BME280;48772;55.586;37.730;2023-02-21T19:53:58;97781.84;;;-10.40;100.00
62712;BME280;48772;55.586;37.730;2023-02-21T19:56:24;97781.84;;;-10.40;100.00
62712;BME280;48772;55.586;37.730;2023-02-21T19:58:50;97783.66;;;-10.44;100.00
62712;BME280;48772;55.586;37.730;2023-02-21T20:01:17;97788.78;;;-10.42;100.00
62712;BME280;48772;55.586;37.730;2023-02-21T20:03:46;97787.94;;;-10.43;100.00
62712;BME280;48772;55.586;37.730;2023-02-21T20:06:13;97751.97;;;-10.76;100.00
62712;BME280;48772;55.586;37.730;2023-02-21T20:08:38;97786.66;;;-10.59;100.00
62712;BME280;48772;55.586;37.730;2023-02-21T20:11:04;97786.47;;;-10.53;100.00
62712;BME280;48772;55.586;37.730;2023-02-21T20:13:30;97786.63;;;-10.57;100.00
62712;BME280;48772;55.586;37.730;2023-02-21T20:15:56;97787.69;;;-10.64;100.00
62712;BME280;48772;55.586;37.730;2023-02-21T20:18:21;97791.22;;;-10.68;100.00
62712;BME280;48772;55.586;37.730;2023-02-21T20:20:47;97798.03;;;-10.67;100.00
62712;BME280;48772;55.586;37.730;2023-02-21T20:23:14;97801.44;;;-10.65;100.00
62712;BME280;48772;55.586;37.730;2023-02-21T20:25:42;97806.59;;;-10.65;100.00
62712;BME280;48772;55.586;37.730;2023-02-21T20:28:08;97805.06;;;-10.72;100.00
62712;BME280;48772;55.586;37.730;2023-02-21T20:30:34;97802.50;;;-10.72;100.00
62712;BME280;48772;55.586;37.730;2023-02-21T20:33:00;97812.88;;;-10.77;100.00
62712;BME280;48772;55.586;37.730;2023-02-21T20:35:26;97805.28;;;-10.82;100.00
62712;BME280;48772;55.586;37.730;2023-02-21T20:37:52;97800.16;;;-10.83;100.00
62712;BME280;48772;55.586;37.730;2023-02-21T20:40:20;97811.59;;;-10.93;100.00
62712;BME280;48772;55.586;37.730;2023-02-21T20:42:46;97804.72;;;-10.93;100.00
62712;BME280;48772;55.586;37.730;2023-02-21T20:45:13;97791.38;;;-11.08;100.00
62712;BME280;48772;55.586;37.730;2023-02-21T20:47:39;97820.13;;;-10.91;100.00
62712;BME280;48772;55.586;37.730;2023-02-21T20:50:18;97820.19;;;-10.94;100.00
62712;BME280;48772;55.586;37.730;2023-02-21T20:52:47;97821.19;;;-11.00;100.00
62712;BME280;48772;55.586;37.730;2023-02-21T20:55:16;97818.66;;;-11.01;100.00
62712;BME280;48772;55.586;37.730;2023-02-21T20:57:47;97816.06;;;-11.01;100.00
62712;BME280;48772;55.586;37.730;2023-02-21T21:00:13;97819.50;;;-11.01;100.00
62712;BME280;48772;55.586;37.730;2023-02-21T21:02:42;97812.75;;;-11.05;100.00
62712;BME280;48772;55.586;37.730;2023-02-21T21:05:08;97813.59;;;-11.04;100.00
62712;BME280;48772;55.586;37.730;2023-02-21T21:07:39;97823.16;;;-11.11;100.00
62712;BME280;48772;55.586;37.730;2023-02-21T21:10:06;97819.66;;;-11.08;100.00
62712;BME280;48772;55.586;37.730;2023-02-21T21:12:34;97828.38;;;-11.14;100.00
62712;BME280;48772;55.586;37.730;2023-02-21T21:15:00;97824.31;;;-11.21;100.00
62712;BME280;48772;55.586;37.730;2023-02-21T21:17:26;97835.75;;;-11.34;100.00
62712;BME280;48772;55.586;37.730;2023-02-21T21:19:54;97837.50;;;-11.36;100.00
62712;BME280;48772;55.586;37.730;2023-02-21T21:22:32;97841.91;;;-11.41;100.00
62712;BME280;48772;55.586;37.730;2023-02-21T21:25:04;97843.78;;;-11.47;100.00
62712;BME280;48772;55.586;37.730;2023-02-21T21:27:31;97849.63;;;-11.41;100.00
62712;BME280;48772;55.586;37.730;2023-02-21T21:29:58;97848.66;;;-11.37;100.00
62712;BME280;48772;55.586;37.730;2023-02-21T21:32:28;97851.47;;;-11.46;100.00
62712;BME280;48772;55.586;37.730;2023-02-21T21:34:55;97855.66;;;-11.42;100.00
62712;BME280;48772;55.586;37.730;2023-02-21T21:37:33;97861.69;;;-11.43;100.00
62712;BME280;48772;55.586;37.730;2023-02-21T21:40:04;97863.50;;;-11.48;100.00
62712;BME280;48772;55.586;37.730;2023-02-21T21:43:10;97870.41;;;-11.50;100.00
62712;BME280;48772;55.586;37.730;2023-02-21T21:45:37;97870.31;;;-11.47;100.00
62712;BME280;48772;55.586;37.730;2023-02-21T21:48:08;97872.09;;;-11.49;100.00
62712;BME280;48772;55.586;37.730;2023-02-21T21:50:40;97879.81;;;-11.50;100.00
62712;BME280;48772;55.586;37.730;2023-02-21T21:53:12;97880.91;;;-11.60;100.00
62712;BME280;48772;55.586;37.730;2023-02-21T21:55:40;97883.41;;;-11.57;100.00
62712;BME280;48772;55.586;37.730;2023-02-21T21:58:38;97889.41;;;-11.57;100.00
62712;BME280;48772;55.586;37.730;2023-02-21T22:01:06;97886.97;;;-11.61;100.00
62712;BME280;48772;55.586;37.730;2023-02-21T22:03:33;97892.16;;;-11.64;100.00
62712;BME280;48772;55.586;37.730;2023-02-21T22:06:01;97902.53;;;-11.69;100.00
62712;BME280;48772;55.586;37.730;2023-02-21T22:08:51;97898.38;;;-11.76;100.00
62712;BME280;48772;55.586;37.730;2023-02-21T22:11:18;97904.47;;;-11.80;100.00
62712;BME280;48772;55.586;37.730;2023-02-21T22:13:44;97909.63;;;-11.81;100.00
62712;BME280;48772;55.586;37.730;2023-02-21T22:16:11;97907.78;;;-11.73;100.00
62712;BME280;48772;55.586;37.730;2023-02-21T22:18:38;97908.66;;;-11.76;100.00
62712;BME280;48772;55.586;37.730;2023-02-21T22:21:08;97918.13;;;-11.76;100.00
62712;BME280;48772;55.586;37.730;2023-02-21T22:23:41;97917.09;;;-11.68;100.00
62712;BME280;48772;55.586;37.730;2023-02-21T22:26:14;97918.16;;;-11.78;100.00
62712;BME280;48772;55.586;37.730;2023-02-21T22:28:39;97919.06;;;-11.80;100.00
62712;BME280;48772;55.586;37.730;2023-02-21T22:31:08;97921.72;;;-11.85;100.00
62712;BME280;48772;55.586;37.730;2023-02-21T22:33:34;97929.41;;;-11.85;100.00
62712;BME280;48772;55.586;37.730;2023-02-21T22:36:00;97934.50;;;-11.82;100.00
62712;BME280;48772;55.586;37.730;2023-02-21T22:38:26;97935.31;;;-11.80;100.00
62712;BME280;48772;55.586;37.730;2023-02-21T22:40:52;97937.97;;;-11.83;100.00
62712;BME280;48772;55.586;37.730;2023-02-21T22:43:18;97931.03;;;-11.81;100.00
62712;BME280;48772;55.586;37.730;2023-02-21T22:45:44;97934.56;;;-11.85;100.00
62712;BME280;48772;55.586;37.730;2023-02-21T22:48:14;97946.63;;;-11.88;100.00
62712;BME280;48772;55.586;37.730;2023-02-21T22:50:40;97949.28;;;-11.93;100.00
62712;BME280;48772;55.586;37.730;2023-02-21T22:53:07;97950.16;;;-11.94;100.00
62712;BME280;48772;55.586;37.730;2023-02-21T22:55:34;97950.97;;;-11.92;100.00